createdAt,value
2018-09-19T00:00:28.925Z,73.90
2018-09-19T00:02:56.320Z,73.70
2018-09-19T00:05:23.700Z,73.80
2018-09-19T00:07:51.087Z,74.00
2018-09-19T00:10:18.875Z,74.20
2018-09-19T00:12:46.206Z,74.20
2018-09-19T00:15:13.795Z,73.80
2018-09-19T00:17:41.099Z,74.30
2018-09-19T00:20:08.516Z,73.90
2018-09-19T00:22:35.876Z,74.10
2018-09-19T00:25:03.198Z,74.10
2018-09-19T00:27:30.547Z,74.50
2018-09-19T00:29:57.885Z,74.80
2018-09-19T00:32:25.256Z,74.40
2018-09-19T00:34:52.621Z,74.40
2018-09-19T00:37:19.965Z,74.20
2018-09-19T00:39:47.348Z,74.00
2018-09-19T00:42:14.727Z,74.20
2018-09-19T00:44:42.111Z,73.90
2018-09-19T00:47:09.462Z,74.20
2018-09-19T00:49:36.775Z,74.70
2018-09-19T00:52:04.088Z,74.30
2018-09-19T00:54:31.450Z,74.90
2018-09-19T00:56:58.734Z,74.20
2018-09-19T00:59:26.125Z,74.60
2018-09-19T01:01:53.549Z,74.60
2018-09-19T01:04:20.956Z,74.30
2018-09-19T01:06:48.306Z,74.60
2018-09-19T01:09:15.641Z,74.70
2018-09-19T01:11:42.957Z,74.70
2018-09-19T01:14:10.380Z,74.50
2018-09-19T01:16:37.690Z,74.30
2018-09-19T01:19:05.011Z,74.20
2018-09-19T01:21:32.328Z,74.30
2018-09-19T01:23:59.649Z,74.60
2018-09-19T01:26:26.943Z,74.20
2018-09-19T01:28:54.260Z,74.30
2018-09-19T01:31:21.562Z,74.20
2018-09-19T01:33:48.993Z,74.20
2018-09-19T01:36:16.466Z,74.40
2018-09-19T01:38:43.865Z,74.60
2018-09-19T01:41:11.211Z,74.80
2018-09-19T01:43:38.580Z,74.80
2018-09-19T01:46:06.055Z,74.30
2018-09-19T01:48:33.374Z,74.50
2018-09-19T01:51:00.758Z,74.90
2018-09-19T01:53:28.142Z,75.10
2018-09-19T01:55:55.556Z,74.90
2018-09-19T01:58:22.932Z,75.10
2018-09-19T02:03:24.172Z,73.40
2018-09-19T02:05:51.421Z,73.50
2018-09-19T02:08:18.736Z,74.00
2018-09-19T02:10:46.049Z,74.40
2018-09-19T02:13:13.374Z,74.60
2018-09-19T02:15:40.681Z,73.80
2018-09-19T02:18:08.018Z,73.00
2018-09-19T02:20:35.395Z,73.20
2018-09-19T02:23:02.824Z,73.70
2018-09-19T02:25:30.231Z,72.70
2018-09-19T02:27:57.527Z,73.00
2018-09-19T02:30:24.848Z,73.30
2018-09-19T02:32:52.179Z,73.50
2018-09-19T02:35:19.508Z,73.80
2018-09-19T02:37:46.860Z,73.70
2018-09-19T02:40:14.171Z,73.50
2018-09-19T02:42:41.484Z,73.10
2018-09-19T02:45:08.812Z,72.90
2018-09-19T02:47:36.128Z,72.80
2018-09-19T02:50:03.434Z,72.90
2018-09-19T02:52:30.762Z,73.30
2018-09-19T02:54:58.115Z,73.40
2018-09-19T02:57:25.388Z,73.00
2018-09-19T02:59:52.735Z,73.40
2018-09-19T03:02:20.171Z,73.30
2018-09-19T03:04:47.580Z,72.90
2018-09-19T03:07:14.937Z,73.20
2018-09-19T03:09:42.255Z,73.40
2018-09-19T03:12:09.601Z,73.20
2018-09-19T03:14:36.913Z,73.10
2018-09-19T03:17:04.288Z,73.00
2018-09-19T03:19:31.592Z,73.20
2018-09-19T03:21:58.966Z,73.40
2018-09-19T03:24:26.328Z,73.40
2018-09-19T03:26:53.652Z,73.00
2018-09-19T03:29:20.958Z,73.10
2018-09-19T03:31:48.287Z,73.40
2018-09-19T03:34:15.590Z,73.00
2018-09-19T03:36:42.914Z,73.20
2018-09-19T03:39:10.255Z,73.80
2018-09-19T03:41:37.651Z,73.80
2018-09-19T03:44:05.148Z,73.60
2018-09-19T03:46:32.468Z,73.70
2018-09-19T03:48:59.790Z,74.70
2018-09-19T03:51:27.101Z,74.70
2018-09-19T03:53:54.394Z,74.90
2018-09-19T03:56:21.709Z,75.00
2018-09-19T03:58:49.011Z,74.70
2018-09-19T04:01:16.347Z,74.90
2018-09-19T04:03:43.740Z,75.00
2018-09-19T04:06:11.055Z,74.50
2018-09-19T04:08:38.359Z,74.70
2018-09-19T04:11:05.859Z,74.60
2018-09-19T04:13:33.229Z,74.80
2018-09-19T04:16:00.555Z,75.70
2018-09-19T04:18:27.913Z,75.40
2018-09-19T04:20:55.223Z,76.00
2018-09-19T04:23:22.546Z,76.10
2018-09-19T04:25:49.885Z,76.50
2018-09-19T04:28:17.219Z,76.40
2018-09-19T04:30:44.604Z,76.90
2018-09-19T04:33:11.959Z,76.70
2018-09-19T04:35:39.320Z,76.60
2018-09-19T04:38:06.707Z,77.00
2018-09-19T04:40:34.017Z,76.80
2018-09-19T04:43:01.449Z,76.80
2018-09-19T04:45:28.770Z,77.30
2018-09-19T04:47:56.145Z,77.80
2018-09-19T04:50:23.443Z,77.80
2018-09-19T04:52:50.750Z,77.90
2018-09-19T04:55:18.210Z,78.00
2018-09-19T04:57:45.510Z,78.20
2018-09-19T05:00:12.843Z,78.20
2018-09-19T05:02:40.171Z,78.60
2018-09-19T05:05:07.555Z,79.10
2018-09-19T05:07:34.874Z,78.80
2018-09-19T05:10:02.176Z,78.60
2018-09-19T05:12:29.495Z,78.90
2018-09-19T05:14:56.883Z,79.10
2018-09-19T05:17:24.187Z,79.10
2018-09-19T05:19:51.572Z,79.30
2018-09-19T05:22:18.892Z,79.30
2018-09-19T05:24:46.194Z,79.30
2018-09-19T05:27:13.521Z,79.10
2018-09-19T05:29:40.847Z,79.00
2018-09-19T05:32:08.174Z,78.40
2018-09-19T05:34:35.611Z,78.00
2018-09-19T05:37:02.937Z,78.00
2018-09-19T05:39:30.247Z,78.60
2018-09-19T05:41:57.579Z,77.70
2018-09-19T05:44:24.942Z,78.60
2018-09-19T05:49:48.061Z,78.70
2018-09-19T05:52:15.375Z,78.60
2018-09-19T05:54:42.713Z,78.60
2018-09-19T05:57:10.034Z,78.50
2018-09-19T05:59:37.326Z,78.80
2018-09-19T06:02:04.751Z,78.60
2018-09-19T06:04:32.096Z,78.60
2018-09-19T06:06:59.431Z,78.40
2018-09-19T06:09:26.766Z,78.10
2018-09-19T06:11:54.162Z,77.90
2018-09-19T06:14:21.479Z,77.70
2018-09-19T06:16:48.783Z,77.80
2018-09-19T06:19:16.124Z,77.80
2018-09-19T06:21:43.429Z,77.90
2018-09-19T06:24:10.778Z,77.60
2018-09-19T06:26:38.078Z,77.40
2018-09-19T06:29:05.524Z,77.30
2018-09-19T06:31:32.911Z,77.30
2018-09-19T06:34:00.234Z,77.40
2018-09-19T06:36:27.536Z,77.30
2018-09-19T06:38:54.904Z,77.10
2018-09-19T06:41:22.217Z,77.20
2018-09-19T06:43:49.539Z,76.80
2018-09-19T06:46:16.895Z,77.00
2018-09-19T06:48:44.231Z,76.70
2018-09-19T06:51:11.539Z,76.60
2018-09-19T06:53:38.880Z,75.60
2018-09-19T06:56:06.238Z,75.70
2018-09-19T06:58:33.582Z,75.80
2018-09-19T07:01:00.909Z,75.60
2018-09-19T07:03:28.277Z,75.60
2018-09-19T07:05:55.612Z,75.10
2018-09-19T07:08:22.912Z,75.30
2018-09-19T07:10:50.266Z,75.70
2018-09-19T07:13:17.775Z,76.10
2018-09-19T07:15:45.127Z,76.00
2018-09-19T07:18:12.464Z,76.00
2018-09-19T07:20:39.911Z,75.70
2018-09-19T07:23:07.296Z,75.70
2018-09-19T07:25:34.615Z,75.30
2018-09-19T07:28:01.940Z,75.10
2018-09-19T07:30:29.290Z,74.60
2018-09-19T07:32:56.573Z,74.60
2018-09-19T07:35:23.935Z,74.40
2018-09-19T07:37:51.252Z,74.20
2018-09-19T07:40:18.649Z,73.70
2018-09-19T07:42:45.912Z,73.70
2018-09-19T07:45:13.249Z,73.20
2018-09-19T07:47:40.582Z,73.30
2018-09-19T07:50:07.889Z,73.30
2018-09-19T07:52:35.335Z,72.60
2018-09-19T07:55:02.645Z,71.70
2018-09-19T07:57:29.976Z,71.70
2018-09-19T07:59:57.300Z,71.50
2018-09-19T08:02:24.621Z,71.40
2018-09-19T08:04:51.927Z,71.00
2018-09-19T08:07:19.314Z,70.90
2018-09-19T08:09:46.623Z,71.00
2018-09-19T08:12:14.053Z,70.40
2018-09-19T08:14:41.395Z,70.20
2018-09-19T08:17:08.772Z,70.10
2018-09-19T08:19:36.060Z,69.80
2018-09-19T08:22:03.396Z,69.20
2018-09-19T08:24:30.748Z,69.50
2018-09-19T08:26:58.081Z,69.40
2018-09-19T08:29:25.460Z,68.80
2018-09-19T08:31:52.885Z,69.20
2018-09-19T08:34:20.211Z,69.10
2018-09-19T08:36:47.698Z,68.50
2018-09-19T08:39:15.091Z,68.70
2018-09-19T08:41:42.415Z,68.00
2018-09-19T08:44:09.744Z,68.00
2018-09-19T08:46:37.100Z,67.80
2018-09-19T08:49:04.543Z,67.50
2018-09-19T08:51:31.859Z,67.10
2018-09-19T08:53:59.202Z,67.50
2018-09-19T08:56:26.533Z,67.80
2018-09-19T08:58:53.878Z,67.70
2018-09-19T09:01:21.247Z,67.80
2018-09-19T09:03:48.521Z,67.90
2018-09-19T09:06:15.888Z,67.80
2018-09-19T09:08:43.231Z,67.40
2018-09-19T09:11:10.554Z,67.40
2018-09-19T09:13:37.868Z,67.30
2018-09-19T09:16:05.187Z,67.40
2018-09-19T09:18:32.501Z,67.00
2018-09-19T09:20:59.843Z,66.90
2018-09-19T09:23:27.153Z,66.70
2018-09-19T09:25:54.481Z,66.60
2018-09-19T09:28:21.834Z,66.20
2018-09-19T09:30:49.136Z,66.00
2018-09-19T09:33:16.497Z,66.00
2018-09-19T09:35:43.826Z,65.60
2018-09-19T09:38:11.166Z,65.20
2018-09-19T09:40:38.544Z,65.30
2018-09-19T09:43:05.960Z,65.10
2018-09-19T09:45:33.263Z,65.00
2018-09-19T09:48:00.606Z,65.40
2018-09-19T09:50:28.087Z,65.80
2018-09-19T09:52:55.491Z,65.60
2018-09-19T09:55:22.799Z,65.70
2018-09-19T09:57:50.112Z,65.40
2018-09-19T10:00:17.453Z,64.90
2018-09-19T10:02:44.806Z,64.70
2018-09-19T10:05:12.212Z,64.80
2018-09-19T10:07:39.576Z,64.50
2018-09-19T10:12:40.576Z,64.10
2018-09-19T10:15:07.978Z,64.10
2018-09-19T10:17:35.378Z,64.10
2018-09-19T10:20:02.682Z,63.90
2018-09-19T10:22:30.001Z,64.20
2018-09-19T10:24:57.354Z,63.60
2018-09-19T10:27:24.659Z,63.70
2018-09-19T10:29:52.032Z,64.10
2018-09-19T10:32:19.348Z,63.80
2018-09-19T10:34:46.681Z,63.80
2018-09-19T10:37:14.009Z,63.90
2018-09-19T10:39:41.364Z,62.90
2018-09-19T10:42:08.720Z,63.00
2018-09-19T10:44:36.056Z,62.70
2018-09-19T10:47:03.377Z,62.00
2018-09-19T10:49:30.810Z,62.00
2018-09-19T10:51:58.097Z,61.40
2018-09-19T10:54:25.516Z,61.70
2018-09-19T10:56:52.856Z,61.50
2018-09-19T10:59:20.223Z,61.20
2018-09-19T11:01:47.563Z,61.10
2018-09-19T11:04:14.898Z,61.80
2018-09-19T11:06:42.259Z,61.50
2018-09-19T11:09:09.583Z,61.30
2018-09-19T11:11:36.931Z,61.10
2018-09-19T11:14:04.326Z,61.50
2018-09-19T11:16:31.654Z,61.10
2018-09-19T11:18:58.964Z,61.30
2018-09-19T11:21:26.336Z,60.90
2018-09-19T11:23:53.692Z,60.60
2018-09-19T11:26:21.176Z,60.30
2018-09-19T11:28:48.507Z,59.70
2018-09-19T11:31:15.878Z,59.70
2018-09-19T11:33:43.272Z,59.70
2018-09-19T11:36:10.687Z,58.90
2018-09-19T11:38:38.410Z,58.70
2018-09-19T11:41:05.942Z,58.80
2018-09-19T11:43:33.326Z,58.90
2018-09-19T11:46:00.724Z,58.90
2018-09-19T11:48:28.195Z,59.20
2018-09-19T11:50:55.537Z,58.80
2018-09-19T11:53:22.876Z,58.40
2018-09-19T11:55:50.201Z,58.10
2018-09-19T11:58:17.533Z,57.90
2018-09-19T12:00:44.893Z,57.50
2018-09-19T12:03:12.232Z,57.90
2018-09-19T12:05:39.577Z,57.70
2018-09-19T12:08:06.901Z,56.40
2018-09-19T12:10:34.268Z,55.80
2018-09-19T12:13:01.600Z,55.60
2018-09-19T12:15:28.959Z,55.10
2018-09-19T12:17:56.270Z,54.20
2018-09-19T12:20:23.581Z,54.60
2018-09-19T12:22:50.918Z,54.70
2018-09-19T12:25:18.220Z,55.10
2018-09-19T12:27:45.564Z,55.00
2018-09-19T12:30:12.898Z,54.80
2018-09-19T12:32:40.279Z,55.30
2018-09-19T12:35:07.659Z,54.70
2018-09-19T12:37:34.998Z,54.30
2018-09-19T12:40:02.327Z,54.60
2018-09-19T12:42:29.660Z,54.70
2018-09-19T12:44:56.998Z,54.60
2018-09-19T12:47:24.376Z,55.00
2018-09-19T12:49:51.712Z,54.70
2018-09-19T12:52:19.338Z,54.70
2018-09-19T12:54:46.829Z,54.70
2018-09-19T12:57:14.170Z,54.10
2018-09-19T12:59:41.496Z,54.00
2018-09-19T13:02:08.842Z,53.70
2018-09-19T13:04:36.155Z,53.20
2018-09-19T13:07:03.560Z,53.50
2018-09-19T13:09:30.912Z,53.70
2018-09-19T13:11:58.238Z,53.50
2018-09-19T13:14:25.570Z,53.50
2018-09-19T13:16:52.867Z,53.80
2018-09-19T13:19:20.190Z,53.60
2018-09-19T13:21:47.531Z,53.50
2018-09-19T13:24:14.831Z,53.20
2018-09-19T13:26:42.198Z,53.00
2018-09-19T13:29:09.519Z,52.80
2018-09-19T13:31:36.838Z,52.80
2018-09-19T13:34:04.200Z,52.80
2018-09-19T13:36:31.621Z,52.70
2018-09-19T13:38:58.943Z,52.60
2018-09-19T13:41:26.322Z,52.40
2018-09-19T13:43:53.679Z,52.30
2018-09-19T13:46:21.005Z,52.60
2018-09-19T13:48:52.821Z,52.70
2018-09-19T13:51:22.453Z,52.40
2018-09-19T13:53:49.899Z,52.40
2018-09-19T13:56:17.208Z,52.40
2018-09-19T13:58:44.601Z,52.10
2018-09-19T14:01:11.899Z,52.50
2018-09-19T14:03:39.240Z,52.30
2018-09-19T14:06:06.719Z,52.00
2018-09-19T14:08:34.065Z,52.30
2018-09-19T14:11:01.463Z,52.00
2018-09-19T14:13:28.757Z,52.50
2018-09-19T14:15:56.194Z,52.40
2018-09-19T14:18:23.563Z,51.80
2018-09-19T14:20:50.913Z,51.90
2018-09-19T14:23:18.238Z,52.10
2018-09-19T14:25:45.619Z,52.50
2018-09-19T14:28:12.954Z,52.30
2018-09-19T14:30:40.331Z,52.00
2018-09-19T14:33:07.673Z,52.60
2018-09-19T14:35:35.066Z,52.20
2018-09-19T14:38:02.335Z,51.90
2018-09-19T14:40:29.673Z,51.80
2018-09-19T14:42:57.129Z,51.80
2018-09-19T14:45:24.482Z,52.10
2018-09-19T14:47:51.824Z,52.00
2018-09-19T14:50:19.164Z,52.20
2018-09-19T14:52:46.524Z,52.40
2018-09-19T14:55:13.837Z,52.00
2018-09-19T14:57:41.168Z,51.70
2018-09-19T15:00:08.546Z,51.90
2018-09-19T15:02:35.834Z,52.30
2018-09-19T15:05:03.208Z,52.20
2018-09-19T15:07:30.558Z,52.20
2018-09-19T15:09:58.769Z,52.00
2018-09-19T15:12:26.110Z,51.90
2018-09-19T15:14:53.483Z,52.10
2018-09-19T15:17:20.871Z,52.20
2018-09-19T15:19:48.256Z,52.10
2018-09-19T15:22:15.618Z,52.70
2018-09-19T15:24:42.948Z,52.90
2018-09-19T15:27:10.269Z,52.70
2018-09-19T15:29:37.681Z,52.70
2018-09-19T15:32:05.100Z,52.70
2018-09-19T15:34:32.945Z,52.60
2018-09-19T15:37:00.572Z,52.50
2018-09-19T15:39:28.644Z,52.30
2018-09-19T15:41:56.568Z,52.60
2018-09-19T15:44:24.008Z,52.50
2018-09-19T15:46:51.363Z,52.90
2018-09-19T15:49:18.790Z,52.80
2018-09-19T15:51:46.164Z,53.20
2018-09-19T15:54:13.584Z,53.10
2018-09-19T15:56:40.910Z,53.20
2018-09-19T15:59:08.244Z,52.80
2018-09-19T16:01:35.583Z,52.80
2018-09-19T16:04:02.950Z,52.50
2018-09-19T16:06:30.281Z,52.30
2018-09-19T16:08:57.625Z,51.80
2018-09-19T16:11:25.171Z,50.70
2018-09-19T16:13:52.500Z,50.20
2018-09-19T16:16:19.922Z,48.90
2018-09-19T16:18:47.325Z,48.60
2018-09-19T16:21:14.655Z,47.90
2018-09-19T16:23:42.024Z,47.80
2018-09-19T16:26:09.344Z,47.50
2018-09-19T16:28:36.872Z,47.50
2018-09-19T16:31:04.267Z,48.10
2018-09-19T16:33:31.612Z,48.70
2018-09-19T16:35:58.916Z,50.00
2018-09-19T16:38:26.267Z,50.40
2018-09-19T16:40:53.623Z,50.90
2018-09-19T16:43:20.947Z,51.60
2018-09-19T16:45:48.482Z,52.00
2018-09-19T16:48:15.843Z,52.60
2018-09-19T16:50:43.220Z,52.70
2018-09-19T16:53:10.557Z,53.00
2018-09-19T16:55:37.879Z,53.10
2018-09-19T16:58:05.262Z,53.50
2018-09-19T17:00:32.618Z,53.70
2018-09-19T17:03:00.035Z,53.90
2018-09-19T17:05:27.387Z,53.90
2018-09-19T17:07:54.846Z,54.00
2018-09-19T17:10:22.178Z,54.00
2018-09-19T17:12:49.545Z,54.60
2018-09-19T17:15:17.001Z,54.30
2018-09-19T17:17:44.277Z,54.40
2018-09-19T17:20:11.617Z,54.60
2018-09-19T17:22:39.524Z,54.70
2018-09-19T17:25:07.100Z,55.00
2018-09-19T17:27:34.439Z,55.20
2018-09-19T17:30:01.850Z,55.50
2018-09-19T17:32:29.314Z,55.70
2018-09-19T17:34:56.662Z,55.90
2018-09-19T17:37:24.021Z,55.80
2018-09-19T17:39:51.290Z,55.90
2018-09-19T17:42:18.687Z,56.00
2018-09-19T17:44:46.042Z,56.30
2018-09-19T17:47:13.420Z,56.60
2018-09-19T17:49:40.807Z,56.70
2018-09-19T17:52:08.104Z,57.10
2018-09-19T17:54:35.435Z,57.30
2018-09-19T17:57:02.749Z,58.40
2018-09-19T17:59:30.109Z,57.70
2018-09-19T18:01:57.432Z,58.10
2018-09-19T18:04:24.764Z,58.60
2018-09-19T18:06:52.217Z,59.00
2018-09-19T18:09:19.606Z,59.20
2018-09-19T18:11:46.982Z,59.60
2018-09-19T18:14:14.316Z,59.20
2018-09-19T18:16:41.642Z,59.90
2018-09-19T18:19:08.979Z,60.30
2018-09-19T18:21:36.404Z,60.50
2018-09-19T18:24:03.723Z,60.20
2018-09-19T18:26:31.105Z,60.30
2018-09-19T18:28:58.411Z,60.40
2018-09-19T18:31:26.203Z,60.70
2018-09-19T18:33:53.540Z,60.80
2018-09-19T18:36:20.879Z,60.50
2018-09-19T18:38:48.199Z,60.90
2018-09-19T18:41:15.548Z,61.60
2018-09-19T18:43:42.876Z,61.40
2018-09-19T18:46:10.188Z,61.50
2018-09-19T18:48:37.820Z,61.50
2018-09-19T18:51:05.169Z,60.90
2018-09-19T18:53:32.504Z,61.80
2018-09-19T18:56:06.547Z,61.80
2018-09-19T18:58:33.999Z,62.30
2018-09-19T19:01:01.331Z,61.60
2018-09-19T19:03:28.655Z,62.70
2018-09-19T19:05:56.016Z,61.80
2018-09-19T19:08:23.340Z,62.40
2018-09-19T19:10:50.711Z,62.60
2018-09-19T19:13:18.046Z,63.80
2018-09-19T19:15:45.383Z,63.20
2018-09-19T19:18:12.716Z,62.80
2018-09-19T19:20:40.076Z,63.80
2018-09-19T19:23:07.384Z,63.20
2018-09-19T19:25:34.724Z,63.30
2018-09-19T19:28:02.046Z,63.30
2018-09-19T19:30:29.530Z,63.40
2018-09-19T19:32:56.746Z,63.90
2018-09-19T19:35:24.253Z,64.10
2018-09-19T19:37:51.637Z,64.20
2018-09-19T19:40:18.981Z,64.60
2018-09-19T19:42:46.531Z,64.50
2018-09-19T19:45:13.984Z,65.10
2018-09-19T19:47:42.440Z,65.80
2018-09-19T19:50:09.761Z,65.60
2018-09-19T19:52:37.103Z,65.50
2018-09-19T19:55:04.460Z,66.40
2018-09-19T19:57:31.803Z,66.00
2018-09-19T19:59:59.152Z,66.50
2018-09-19T20:02:26.472Z,66.90
2018-09-19T20:04:53.861Z,66.40
2018-09-19T20:07:21.187Z,66.80
2018-09-19T20:09:48.530Z,67.20
2018-09-19T20:12:15.828Z,67.80
2018-09-19T20:14:43.172Z,67.50
2018-09-19T20:17:10.476Z,67.50
2018-09-19T20:19:44.439Z,66.70
2018-09-19T20:22:11.748Z,67.50
2018-09-19T20:24:39.163Z,66.80
2018-09-19T20:27:06.857Z,67.40
2018-09-19T20:29:34.204Z,67.40
2018-09-19T20:32:01.501Z,67.50
2018-09-19T20:34:28.809Z,67.80
2018-09-19T20:36:56.151Z,68.60
2018-09-19T20:39:23.479Z,67.90
2018-09-19T20:41:50.800Z,69.00
2018-09-19T20:44:18.126Z,69.50
2018-09-19T20:46:45.519Z,68.80
2018-09-19T20:49:12.783Z,68.60
2018-09-19T20:51:40.131Z,69.40
2018-09-19T20:54:07.446Z,69.50
2018-09-19T20:56:34.756Z,69.40
2018-09-19T20:59:02.120Z,69.80
2018-09-19T21:01:29.449Z,70.20
2018-09-19T21:03:56.764Z,68.80
2018-09-19T21:06:24.082Z,69.00
2018-09-19T21:08:51.464Z,69.30
2018-09-19T21:11:18.775Z,70.60
2018-09-19T21:13:46.120Z,70.20
2018-09-19T21:16:13.447Z,70.20
2018-09-19T21:18:40.764Z,70.40
2018-09-19T21:21:14.877Z,70.30
2018-09-19T21:23:42.263Z,70.00
2018-09-19T21:26:09.585Z,70.00
2018-09-19T21:28:36.928Z,70.10
2018-09-19T21:31:04.258Z,70.40
2018-09-19T21:33:31.605Z,70.20
2018-09-19T21:35:58.921Z,70.40
2018-09-19T21:38:26.247Z,71.10
2018-09-19T21:40:53.773Z,71.50
2018-09-19T21:43:21.027Z,71.00
2018-09-19T21:45:48.376Z,71.40
2018-09-19T21:48:15.679Z,71.30
2018-09-19T21:50:43.015Z,71.10
2018-09-19T21:53:10.361Z,70.80
2018-09-19T21:55:37.692Z,71.00
2018-09-19T21:58:05.072Z,71.40
2018-09-19T22:00:32.420Z,71.80
2018-09-19T22:02:59.742Z,71.60
2018-09-19T22:05:27.061Z,71.60
2018-09-19T22:07:54.373Z,71.70
2018-09-19T22:10:21.705Z,71.80
2018-09-19T22:12:49.012Z,72.30
2018-09-19T22:15:16.404Z,71.60
2018-09-19T22:17:44.964Z,72.00
2018-09-19T22:20:12.328Z,72.30
2018-09-19T22:22:39.713Z,72.00
2018-09-19T22:25:07.035Z,71.90
2018-09-19T22:30:07.264Z,72.00
2018-09-19T22:32:34.583Z,71.80
2018-09-19T22:35:01.929Z,72.50
2018-09-19T22:37:29.267Z,72.10
2018-09-19T22:39:56.608Z,72.00
2018-09-19T22:42:23.974Z,71.90
2018-09-19T22:44:51.286Z,72.40
2018-09-19T22:47:18.621Z,72.40
2018-09-19T22:49:45.956Z,73.10
2018-09-19T22:52:13.332Z,72.80
2018-09-19T22:54:40.667Z,73.30
2018-09-19T22:57:08.019Z,73.10
2018-09-19T22:59:35.323Z,73.10
2018-09-19T23:02:02.650Z,72.90
2018-09-19T23:04:29.992Z,72.90
2018-09-19T23:06:57.323Z,73.70
2018-09-19T23:09:24.641Z,73.60
2018-09-19T23:11:51.976Z,73.80
2018-09-19T23:14:19.298Z,73.40
2018-09-19T23:16:46.652Z,73.30
2018-09-19T23:19:14.012Z,73.90
2018-09-19T23:21:41.367Z,74.40
2018-09-19T23:24:08.691Z,74.20
2018-09-19T23:26:36.015Z,74.30
2018-09-19T23:29:03.359Z,73.70
2018-09-19T23:31:30.722Z,73.40
2018-09-19T23:33:58.037Z,73.60
2018-09-19T23:36:25.383Z,74.00
2018-09-19T23:38:52.707Z,74.10
2018-09-19T23:41:20.026Z,73.70
2018-09-19T23:43:47.372Z,74.30
2018-09-19T23:46:14.717Z,74.30
2018-09-19T23:48:42.066Z,74.80
2018-09-19T23:51:09.429Z,75.00
2018-09-19T23:53:36.861Z,75.80
2018-09-19T23:56:04.283Z,76.10
2018-09-19T23:58:31.691Z,75.60
